sensor_id;sensor_type;location;lat;lon;timestamp;P1;durP1;ratioP1;P2;durP2;ratioP2
18449;SDS011;9354;50.194;7.690;2023-02-10T00:02:23;29.07;;;12.27;;
18449;SDS011;9354;50.194;7.690;2023-02-10T00:04:51;32.77;;;13.13;;
18449;SDS011;9354;50.194;7.690;2023-02-10T00:07:18;31.80;;;12.67;;
18449;SDS011;9354;50.194;7.690;2023-02-10T00:09:46;32.17;;;12.67;;
18449;SDS011;9354;50.194;7.690;2023-02-10T00:12:15;33.23;;;13.10;;
18449;SDS011;9354;50.194;7.690;2023-02-10T00:14:43;31.03;;;13.67;;
18449;SDS011;9354;50.194;7.690;2023-02-10T00:17:10;36.33;;;13.50;;
18449;SDS011;9354;50.194;7.690;2023-02-10T00:19:38;34.00;;;13.33;;
18449;SDS011;9354;50.194;7.690;2023-02-10T00:22:05;34.97;;;12.60;;
18449;SDS011;9354;50.194;7.690;2023-02-10T00:24:33;35.83;;;13.23;;
18449;SDS011;9354;50.194;7.690;2023-02-10T00:27:00;37.97;;;14.43;;
18449;SDS011;9354;50.194;7.690;2023-02-10T00:29:30;33.30;;;13.20;;
18449;SDS011;9354;50.194;7.690;2023-02-10T00:31:57;31.43;;;13.03;;
18449;SDS011;9354;50.194;7.690;2023-02-10T00:34:25;31.23;;;12.73;;
18449;SDS011;9354;50.194;7.690;2023-02-10T00:36:53;39.43;;;14.47;;
18449;SDS011;9354;50.194;7.690;2023-02-10T00:39:20;34.87;;;13.77;;
18449;SDS011;9354;50.194;7.690;2023-02-10T00:41:48;39.43;;;14.53;;
18449;SDS011;9354;50.194;7.690;2023-02-10T00:44:15;38.47;;;14.27;;
18449;SDS011;9354;50.194;7.690;2023-02-10T00:46:44;33.50;;;14.63;;
18449;SDS011;9354;50.194;7.690;2023-02-10T00:49:11;33.30;;;14.40;;
18449;SDS011;9354;50.194;7.690;2023-02-10T00:51:38;33.00;;;13.87;;
18449;SDS011;9354;50.194;7.690;2023-02-10T00:54:06;37.87;;;15.30;;
18449;SDS011;9354;50.194;7.690;2023-02-10T00:56:33;35.17;;;14.20;;
18449;SDS011;9354;50.194;7.690;2023-02-10T00:59:00;37.03;;;13.30;;
18449;SDS011;9354;50.194;7.690;2023-02-10T01:01:28;35.57;;;14.17;;
18449;SDS011;9354;50.194;7.690;2023-02-10T01:03:56;34.70;;;14.40;;
18449;SDS011;9354;50.194;7.690;2023-02-10T01:06:24;35.17;;;13.93;;
18449;SDS011;9354;50.194;7.690;2023-02-10T01:08:51;34.23;;;13.90;;
18449;SDS011;9354;50.194;7.690;2023-02-10T01:11:18;35.07;;;13.83;;
18449;SDS011;9354;50.194;7.690;2023-02-10T01:13:46;34.47;;;13.80;;
18449;SDS011;9354;50.194;7.690;2023-02-10T01:16:14;30.67;;;13.70;;
18449;SDS011;9354;50.194;7.690;2023-02-10T01:18:43;35.50;;;14.70;;
18449;SDS011;9354;50.194;7.690;2023-02-10T01:21:13;39.00;;;14.53;;
18449;SDS011;9354;50.194;7.690;2023-02-10T01:23:41;35.93;;;13.90;;
18449;SDS011;9354;50.194;7.690;2023-02-10T01:26:09;29.33;;;13.33;;
18449;SDS011;9354;50.194;7.690;2023-02-10T01:28:36;37.30;;;13.00;;
18449;SDS011;9354;50.194;7.690;2023-02-10T01:31:04;35.67;;;13.93;;
18449;SDS011;9354;50.194;7.690;2023-02-10T01:33:33;34.70;;;14.13;;
18449;SDS011;9354;50.194;7.690;2023-02-10T01:36:02;37.53;;;13.73;;
18449;SDS011;9354;50.194;7.690;2023-02-10T01:38:32;32.73;;;13.60;;
18449;SDS011;9354;50.194;7.690;2023-02-10T01:41:00;36.43;;;14.60;;
18449;SDS011;9354;50.194;7.690;2023-02-10T01:43:27;32.30;;;13.00;;
18449;SDS011;9354;50.194;7.690;2023-02-10T01:45:57;31.47;;;13.40;;
18449;SDS011;9354;50.194;7.690;2023-02-10T01:48:25;29.13;;;13.17;;
18449;SDS011;9354;50.194;7.690;2023-02-10T01:50:53;29.40;;;12.50;;
18449;SDS011;9354;50.194;7.690;2023-02-10T01:53:23;26.37;;;12.37;;
18449;SDS011;9354;50.194;7.690;2023-02-10T01:55:54;33.70;;;13.97;;
18449;SDS011;9354;50.194;7.690;2023-02-10T01:58:25;29.83;;;12.27;;
18449;SDS011;9354;50.194;7.690;2023-02-10T02:00:55;30.13;;;13.10;;
18449;SDS011;9354;50.194;7.690;2023-02-10T02:03:22;31.93;;;13.27;;
18449;SDS011;9354;50.194;7.690;2023-02-10T02:05:49;32.73;;;13.90;;
18449;SDS011;9354;50.194;7.690;2023-02-10T02:08:17;38.83;;;13.90;;
18449;SDS011;9354;50.194;7.690;2023-02-10T02:10:58;32.90;;;14.00;;
18449;SDS011;9354;50.194;7.690;2023-02-10T02:13:33;33.83;;;14.47;;
18449;SDS011;9354;50.194;7.690;2023-02-10T02:16:10;33.57;;;13.90;;
18449;SDS011;9354;50.194;7.690;2023-02-10T02:18:46;36.57;;;14.83;;
18449;SDS011;9354;50.194;7.690;2023-02-10T02:21:27;38.93;;;14.83;;
18449;SDS011;9354;50.194;7.690;2023-02-10T02:24:21;36.47;;;13.77;;
18449;SDS011;9354;50.194;7.690;2023-02-10T02:30:15;35.27;;;14.67;;
18449;SDS011;9354;50.194;7.690;2023-02-10T02:33:02;35.77;;;14.37;;
18449;SDS011;9354;50.194;7.690;2023-02-10T02:35:37;34.53;;;14.83;;
18449;SDS011;9354;50.194;7.690;2023-02-10T02:38:10;41.47;;;15.50;;
18449;SDS011;9354;50.194;7.690;2023-02-10T02:40:37;37.20;;;15.27;;
18449;SDS011;9354;50.194;7.690;2023-02-10T02:43:05;38.13;;;15.60;;
18449;SDS011;9354;50.194;7.690;2023-02-10T02:45:33;45.60;;;15.47;;
18449;SDS011;9354;50.194;7.690;2023-02-10T02:48:13;35.27;;;14.33;;
18449;SDS011;9354;50.194;7.690;2023-02-10T02:50:55;38.30;;;15.73;;
18449;SDS011;9354;50.194;7.690;2023-02-10T02:53:28;36.83;;;14.70;;
18449;SDS011;9354;50.194;7.690;2023-02-10T02:56:06;36.87;;;14.80;;
18449;SDS011;9354;50.194;7.690;2023-02-10T02:58:44;37.07;;;14.23;;
18449;SDS011;9354;50.194;7.690;2023-02-10T03:01:18;35.97;;;14.73;;
18449;SDS011;9354;50.194;7.690;2023-02-10T03:03:52;38.67;;;14.60;;
18449;SDS011;9354;50.194;7.690;2023-02-10T03:06:20;43.77;;;15.77;;
18449;SDS011;9354;50.194;7.690;2023-02-10T03:08:48;37.17;;;15.63;;
18449;SDS011;9354;50.194;7.690;2023-02-10T03:11:16;42.27;;;16.07;;
18449;SDS011;9354;50.194;7.690;2023-02-10T03:13:43;39.63;;;16.80;;
18449;SDS011;9354;50.194;7.690;2023-02-10T03:16:10;38.53;;;16.23;;
18449;SDS011;9354;50.194;7.690;2023-02-10T03:18:38;39.90;;;16.57;;
18449;SDS011;9354;50.194;7.690;2023-02-10T03:21:06;42.27;;;16.83;;
18449;SDS011;9354;50.194;7.690;2023-02-10T03:23:34;35.73;;;15.37;;
18449;SDS011;9354;50.194;7.690;2023-02-10T03:26:01;42.50;;;16.67;;
18449;SDS011;9354;50.194;7.690;2023-02-10T03:28:29;34.87;;;15.23;;
18449;SDS011;9354;50.194;7.690;2023-02-10T03:30:56;42.07;;;16.77;;
18449;SDS011;9354;50.194;7.690;2023-02-10T03:33:24;39.07;;;16.07;;
18449;SDS011;9354;50.194;7.690;2023-02-10T03:35:51;41.80;;;17.70;;
18449;SDS011;9354;50.194;7.690;2023-02-10T03:38:20;39.97;;;16.87;;
18449;SDS011;9354;50.194;7.690;2023-02-10T03:40:48;40.33;;;17.60;;
18449;SDS011;9354;50.194;7.690;2023-02-10T03:43:16;44.97;;;17.43;;
18449;SDS011;9354;50.194;7.690;2023-02-10T03:45:44;41.97;;;17.13;;
18449;SDS011;9354;50.194;7.690;2023-02-10T03:48:12;39.17;;;17.17;;
18449;SDS011;9354;50.194;7.690;2023-02-10T03:50:41;47.93;;;18.33;;
18449;SDS011;9354;50.194;7.690;2023-02-10T03:53:08;44.07;;;16.80;;
18449;SDS011;9354;50.194;7.690;2023-02-10T03:55:37;42.20;;;16.80;;
18449;SDS011;9354;50.194;7.690;2023-02-10T03:58:04;43.37;;;17.70;;
18449;SDS011;9354;50.194;7.690;2023-02-10T04:00:32;40.00;;;17.60;;
18449;SDS011;9354;50.194;7.690;2023-02-10T04:02:59;41.47;;;17.40;;
18449;SDS011;9354;50.194;7.690;2023-02-10T04:05:26;43.27;;;17.13;;
18449;SDS011;9354;50.194;7.690;2023-02-10T04:07:54;43.47;;;17.47;;
18449;SDS011;9354;50.194;7.690;2023-02-10T04:10:21;38.87;;;15.93;;
18449;SDS011;9354;50.194;7.690;2023-02-10T04:12:50;42.10;;;14.90;;
18449;SDS011;9354;50.194;7.690;2023-02-10T04:15:17;41.17;;;15.80;;
18449;SDS011;9354;50.194;7.690;2023-02-10T04:17:45;42.43;;;15.17;;
18449;SDS011;9354;50.194;7.690;2023-02-10T04:20:12;36.07;;;15.33;;
18449;SDS011;9354;50.194;7.690;2023-02-10T04:22:40;38.57;;;16.27;;
18449;SDS011;9354;50.194;7.690;2023-02-10T04:25:08;42.57;;;16.23;;
18449;SDS011;9354;50.194;7.690;2023-02-10T04:27:35;37.77;;;16.23;;
18449;SDS011;9354;50.194;7.690;2023-02-10T04:30:05;42.97;;;16.57;;
18449;SDS011;9354;50.194;7.690;2023-02-10T04:32:33;38.77;;;16.77;;
18449;SDS011;9354;50.194;7.690;2023-02-10T04:35:00;36.17;;;15.13;;
18449;SDS011;9354;50.194;7.690;2023-02-10T04:37:27;37.80;;;15.10;;
18449;SDS011;9354;50.194;7.690;2023-02-10T04:39:55;35.40;;;14.00;;
18449;SDS011;9354;50.194;7.690;2023-02-10T04:42:22;31.57;;;13.93;;
18449;SDS011;9354;50.194;7.690;2023-02-10T04:44:55;35.43;;;13.93;;
18449;SDS011;9354;50.194;7.690;2023-02-10T04:47:24;30.27;;;13.00;;
18449;SDS011;9354;50.194;7.690;2023-02-10T04:49:52;37.07;;;15.23;;
18449;SDS011;9354;50.194;7.690;2023-02-10T04:52:20;45.40;;;17.60;;
18449;SDS011;9354;50.194;7.690;2023-02-10T04:54:48;35.77;;;15.00;;
18449;SDS011;9354;50.194;7.690;2023-02-10T04:57:15;41.60;;;16.03;;
18449;SDS011;9354;50.194;7.690;2023-02-10T04:59:43;39.63;;;15.70;;
18449;SDS011;9354;50.194;7.690;2023-02-10T05:02:12;37.43;;;16.07;;
18449;SDS011;9354;50.194;7.690;2023-02-10T05:04:41;36.83;;;15.90;;
18449;SDS011;9354;50.194;7.690;2023-02-10T05:07:08;44.57;;;18.30;;
18449;SDS011;9354;50.194;7.690;2023-02-10T05:09:36;40.77;;;17.17;;
18449;SDS011;9354;50.194;7.690;2023-02-10T05:12:03;35.90;;;15.67;;
18449;SDS011;9354;50.194;7.690;2023-02-10T05:14:31;37.37;;;16.23;;
18449;SDS011;9354;50.194;7.690;2023-02-10T05:16:58;35.93;;;15.10;;
18449;SDS011;9354;50.194;7.690;2023-02-10T05:19:25;38.50;;;16.27;;
18449;SDS011;9354;50.194;7.690;2023-02-10T05:21:54;42.97;;;16.90;;
18449;SDS011;9354;50.194;7.690;2023-02-10T05:24:21;38.73;;;17.03;;
18449;SDS011;9354;50.194;7.690;2023-02-10T05:26:49;45.80;;;17.03;;
18449;SDS011;9354;50.194;7.690;2023-02-10T05:29:16;39.70;;;16.20;;
18449;SDS011;9354;50.194;7.690;2023-02-10T05:31:43;40.47;;;17.00;;
18449;SDS011;9354;50.194;7.690;2023-02-10T05:34:11;40.27;;;16.40;;
18449;SDS011;9354;50.194;7.690;2023-02-10T05:36:38;38.80;;;16.40;;
18449;SDS011;9354;50.194;7.690;2023-02-10T05:39:10;42.57;;;16.53;;
18449;SDS011;9354;50.194;7.690;2023-02-10T05:41:49;38.07;;;16.43;;
18449;SDS011;9354;50.194;7.690;2023-02-10T05:44:17;43.57;;;15.93;;
18449;SDS011;9354;50.194;7.690;2023-02-10T05:46:44;40.20;;;17.00;;
18449;SDS011;9354;50.194;7.690;2023-02-10T05:49:12;44.30;;;16.97;;
18449;SDS011;9354;50.194;7.690;2023-02-10T05:51:39;48.40;;;16.83;;
18449;SDS011;9354;50.194;7.690;2023-02-10T05:54:07;40.50;;;15.73;;
18449;SDS011;9354;50.194;7.690;2023-02-10T05:56:36;42.30;;;16.63;;
18449;SDS011;9354;50.194;7.690;2023-02-10T05:59:03;50.10;;;17.50;;
18449;SDS011;9354;50.194;7.690;2023-02-10T06:01:31;37.37;;;16.60;;
18449;SDS011;9354;50.194;7.690;2023-02-10T06:03:58;41.53;;;17.93;;
18449;SDS011;9354;50.194;7.690;2023-02-10T06:06:26;41.87;;;17.33;;
18449;SDS011;9354;50.194;7.690;2023-02-10T06:08:53;36.93;;;16.47;;
18449;SDS011;9354;50.194;7.690;2023-02-10T06:11:20;49.40;;;17.07;;
18449;SDS011;9354;50.194;7.690;2023-02-10T06:13:49;43.70;;;17.33;;
18449;SDS011;9354;50.194;7.690;2023-02-10T06:16:16;42.63;;;16.73;;
18449;SDS011;9354;50.194;7.690;2023-02-10T06:18:44;41.80;;;17.77;;
18449;SDS011;9354;50.194;7.690;2023-02-10T06:21:15;44.27;;;17.43;;
18449;SDS011;9354;50.194;7.690;2023-02-10T06:23:43;42.67;;;17.30;;
18449;SDS011;9354;50.194;7.690;2023-02-10T06:26:10;42.80;;;17.57;;
18449;SDS011;9354;50.194;7.690;2023-02-10T06:28:38;40.97;;;16.97;;
18449;SDS011;9354;50.194;7.690;2023-02-10T06:31:06;38.93;;;16.43;;
18449;SDS011;9354;50.194;7.690;2023-02-10T06:33:34;42.83;;;17.80;;
18449;SDS011;9354;50.194;7.690;2023-02-10T06:36:01;38.37;;;15.83;;
18449;SDS011;9354;50.194;7.690;2023-02-10T06:38:30;40.57;;;16.83;;
18449;SDS011;9354;50.194;7.690;2023-02-10T06:40:58;47.23;;;17.70;;
18449;SDS011;9354;50.194;7.690;2023-02-10T06:43:25;40.67;;;17.57;;
18449;SDS011;9354;50.194;7.690;2023-02-10T06:45:52;41.23;;;18.00;;
18449;SDS011;9354;50.194;7.690;2023-02-10T06:48:21;38.47;;;16.67;;
18449;SDS011;9354;50.194;7.690;2023-02-10T06:50:48;48.30;;;17.03;;
18449;SDS011;9354;50.194;7.690;2023-02-10T06:53:16;44.47;;;17.17;;
18449;SDS011;9354;50.194;7.690;2023-02-10T06:55:43;39.67;;;17.03;;
18449;SDS011;9354;50.194;7.690;2023-02-10T06:58:11;43.73;;;17.00;;
18449;SDS011;9354;50.194;7.690;2023-02-10T07:00:38;39.13;;;17.20;;
18449;SDS011;9354;50.194;7.690;2023-02-10T07:03:06;45.03;;;18.33;;
18449;SDS011;9354;50.194;7.690;2023-02-10T07:05:34;43.77;;;18.00;;
18449;SDS011;9354;50.194;7.690;2023-02-10T07:08:02;46.77;;;17.30;;
18449;SDS011;9354;50.194;7.690;2023-02-10T07:10:30;44.03;;;16.83;;
18449;SDS011;9354;50.194;7.690;2023-02-10T07:12:57;43.20;;;17.50;;
18449;SDS011;9354;50.194;7.690;2023-02-10T07:15:25;43.43;;;17.93;;
18449;SDS011;9354;50.194;7.690;2023-02-10T07:17:52;42.40;;;17.60;;
18449;SDS011;9354;50.194;7.690;2023-02-10T07:20:20;39.37;;;16.57;;
18449;SDS011;9354;50.194;7.690;2023-02-10T07:22:49;40.50;;;17.33;;
18449;SDS011;9354;50.194;7.690;2023-02-10T07:25:17;47.77;;;17.50;;
18449;SDS011;9354;50.194;7.690;2023-02-10T07:27:44;41.73;;;17.13;;
18449;SDS011;9354;50.194;7.690;2023-02-10T07:30:12;40.67;;;17.93;;
18449;SDS011;9354;50.194;7.690;2023-02-10T07:32:40;37.63;;;16.90;;
18449;SDS011;9354;50.194;7.690;2023-02-10T07:35:09;40.07;;;15.97;;
18449;SDS011;9354;50.194;7.690;2023-02-10T07:37:37;41.20;;;17.07;;
18449;SDS011;9354;50.194;7.690;2023-02-10T07:40:06;42.83;;;17.37;;
18449;SDS011;9354;50.194;7.690;2023-02-10T07:42:35;49.37;;;17.40;;
18449;SDS011;9354;50.194;7.690;2023-02-10T07:45:02;43.47;;;17.33;;
18449;SDS011;9354;50.194;7.690;2023-02-10T07:47:30;41.60;;;17.87;;
18449;SDS011;9354;50.194;7.690;2023-02-10T07:49:57;41.83;;;18.03;;
18449;SDS011;9354;50.194;7.690;2023-02-10T07:52:25;45.97;;;18.33;;
18449;SDS011;9354;50.194;7.690;2023-02-10T07:54:52;46.40;;;17.07;;
18449;SDS011;9354;50.194;7.690;2023-02-10T07:57:22;37.23;;;16.07;;
18449;SDS011;9354;50.194;7.690;2023-02-10T07:59:49;39.73;;;17.60;;
18449;SDS011;9354;50.194;7.690;2023-02-10T08:02:17;39.77;;;17.37;;
18449;SDS011;9354;50.194;7.690;2023-02-10T08:04:44;37.53;;;15.93;;
18449;SDS011;9354;50.194;7.690;2023-02-10T08:07:11;39.07;;;16.50;;
18449;SDS011;9354;50.194;7.690;2023-02-10T08:09:39;38.17;;;15.87;;
18449;SDS011;9354;50.194;7.690;2023-02-10T08:12:06;38.07;;;16.13;;
18449;SDS011;9354;50.194;7.690;2023-02-10T08:14:35;40.57;;;16.57;;
18449;SDS011;9354;50.194;7.690;2023-02-10T08:17:02;34.30;;;15.27;;
18449;SDS011;9354;50.194;7.690;2023-02-10T08:19:29;36.00;;;16.10;;
18449;SDS011;9354;50.194;7.690;2023-02-10T08:21:57;41.87;;;16.97;;
18449;SDS011;9354;50.194;7.690;2023-02-10T08:24:24;48.67;;;19.73;;
18449;SDS011;9354;50.194;7.690;2023-02-10T08:26:52;47.77;;;18.60;;
18449;SDS011;9354;50.194;7.690;2023-02-10T08:29:19;40.70;;;17.43;;
18449;SDS011;9354;50.194;7.690;2023-02-10T08:31:49;33.87;;;15.87;;
18449;SDS011;9354;50.194;7.690;2023-02-10T08:34:18;39.60;;;16.50;;
18449;SDS011;9354;50.194;7.690;2023-02-10T08:36:46;36.37;;;15.73;;
18449;SDS011;9354;50.194;7.690;2023-02-10T08:39:13;36.00;;;15.70;;
18449;SDS011;9354;50.194;7.690;2023-02-10T08:41:41;31.97;;;14.10;;
18449;SDS011;9354;50.194;7.690;2023-02-10T08:44:09;43.63;;;18.67;;
18449;SDS011;9354;50.194;7.690;2023-02-10T08:46:37;42.37;;;15.67;;
18449;SDS011;9354;50.194;7.690;2023-02-10T08:49:06;39.43;;;17.00;;
18449;SDS011;9354;50.194;7.690;2023-02-10T08:51:34;36.00;;;14.77;;
18449;SDS011;9354;50.194;7.690;2023-02-10T08:54:04;33.70;;;16.03;;
18449;SDS011;9354;50.194;7.690;2023-02-10T08:56:32;36.33;;;15.53;;
18449;SDS011;9354;50.194;7.690;2023-02-10T08:58:59;37.20;;;15.97;;
18449;SDS011;9354;50.194;7.690;2023-02-10T09:01:27;34.07;;;16.17;;
18449;SDS011;9354;50.194;7.690;2023-02-10T09:03:54;37.00;;;15.80;;
18449;SDS011;9354;50.194;7.690;2023-02-10T09:06:24;32.67;;;15.40;;
18449;SDS011;9354;50.194;7.690;2023-02-10T09:08:56;40.27;;;16.07;;
18449;SDS011;9354;50.194;7.690;2023-02-10T09:11:25;36.80;;;16.33;;
18449;SDS011;9354;50.194;7.690;2023-02-10T09:13:53;41.13;;;16.90;;
18449;SDS011;9354;50.194;7.690;2023-02-10T09:16:20;36.03;;;16.33;;
18449;SDS011;9354;50.194;7.690;2023-02-10T09:18:47;35.63;;;16.27;;
18449;SDS011;9354;50.194;7.690;2023-02-10T09:21:15;37.83;;;15.43;;
18449;SDS011;9354;50.194;7.690;2023-02-10T09:23:44;31.67;;;14.77;;
18449;SDS011;9354;50.194;7.690;2023-02-10T09:26:12;35.50;;;15.97;;
18449;SDS011;9354;50.194;7.690;2023-02-10T09:28:39;42.83;;;16.80;;
18449;SDS011;9354;50.194;7.690;2023-02-10T09:31:07;33.93;;;15.23;;
18449;SDS011;9354;50.194;7.690;2023-02-10T09:33:35;38.57;;;15.63;;
18449;SDS011;9354;50.194;7.690;2023-02-10T09:36:03;33.07;;;15.37;;
18449;SDS011;9354;50.194;7.690;2023-02-10T09:38:34;38.47;;;16.70;;
18449;SDS011;9354;50.194;7.690;2023-02-10T09:41:05;38.67;;;16.47;;
18449;SDS011;9354;50.194;7.690;2023-02-10T09:43:47;36.77;;;15.37;;
18449;SDS011;9354;50.194;7.690;2023-02-10T09:46:28;38.60;;;16.23;;
18449;SDS011;9354;50.194;7.690;2023-02-10T09:49:07;37.30;;;16.10;;
18449;SDS011;9354;50.194;7.690;2023-02-10T09:51:43;38.23;;;16.83;;
18449;SDS011;9354;50.194;7.690;2023-02-10T09:54:22;42.13;;;17.00;;
18449;SDS011;9354;50.194;7.690;2023-02-10T09:56:51;40.03;;;16.07;;
18449;SDS011;9354;50.194;7.690;2023-02-10T09:59:19;41.97;;;17.43;;
18449;SDS011;9354;50.194;7.690;2023-02-10T10:01:49;40.53;;;17.27;;
18449;SDS011;9354;50.194;7.690;2023-02-10T10:04:20;44.97;;;15.83;;
18449;SDS011;9354;50.194;7.690;2023-02-10T10:06:49;35.53;;;16.40;;
18449;SDS011;9354;50.194;7.690;2023-02-10T10:09:22;36.47;;;15.60;;
18449;SDS011;9354;50.194;7.690;2023-02-10T10:11:58;37.07;;;16.30;;
18449;SDS011;9354;50.194;7.690;2023-02-10T10:14:26;38.83;;;16.60;;
18449;SDS011;9354;50.194;7.690;2023-02-10T10:19:52;42.33;;;17.13;;
18449;SDS011;9354;50.194;7.690;2023-02-10T10:22:32;49.20;;;18.50;;
18449;SDS011;9354;50.194;7.690;2023-02-10T10:25:17;38.53;;;16.33;;
18449;SDS011;9354;50.194;7.690;2023-02-10T10:27:58;46.10;;;17.47;;
18449;SDS011;9354;50.194;7.690;2023-02-10T10:30:36;38.83;;;16.67;;
18449;SDS011;9354;50.194;7.690;2023-02-10T10:33:14;40.63;;;16.67;;
18449;SDS011;9354;50.194;7.690;2023-02-10T10:35:48;41.73;;;15.97;;
18449;SDS011;9354;50.194;7.690;2023-02-10T10:38:17;37.80;;;15.30;;
18449;SDS011;9354;50.194;7.690;2023-02-10T10:40:47;42.23;;;16.93;;
18449;SDS011;9354;50.194;7.690;2023-02-10T10:43:21;40.03;;;16.93;;
18449;SDS011;9354;50.194;7.690;2023-02-10T10:45:52;40.17;;;16.67;;
18449;SDS011;9354;50.194;7.690;2023-02-10T10:48:26;39.50;;;17.40;;
18449;SDS011;9354;50.194;7.690;2023-02-10T10:50:58;40.10;;;16.50;;
18449;SDS011;9354;50.194;7.690;2023-02-10T10:53:31;38.10;;;15.73;;
18449;SDS011;9354;50.194;7.690;2023-02-10T10:56:05;39.37;;;14.80;;
18449;SDS011;9354;50.194;7.690;2023-02-10T10:58:38;36.90;;;15.30;;
18449;SDS011;9354;50.194;7.690;2023-02-10T11:01:10;39.50;;;15.80;;
18449;SDS011;9354;50.194;7.690;2023-02-10T11:03:38;32.50;;;14.90;;
18449;SDS011;9354;50.194;7.690;2023-02-10T11:06:07;33.00;;;13.63;;
18449;SDS011;9354;50.194;7.690;2023-02-10T11:08:38;43.17;;;15.60;;
18449;SDS011;9354;50.194;7.690;2023-02-10T11:11:09;33.90;;;14.83;;
18449;SDS011;9354;50.194;7.690;2023-02-10T11:13:41;34.17;;;15.33;;
18449;SDS011;9354;50.194;7.690;2023-02-10T11:16:16;37.27;;;14.87;;
18449;SDS011;9354;50.194;7.690;2023-02-10T11:18:53;34.37;;;14.00;;
18449;SDS011;9354;50.194;7.690;2023-02-10T11:21:31;36.97;;;14.63;;
18449;SDS011;9354;50.194;7.690;2023-02-10T11:24:00;32.57;;;14.57;;
18449;SDS011;9354;50.194;7.690;2023-02-10T11:26:28;43.97;;;16.30;;
18449;SDS011;9354;50.194;7.690;2023-02-10T11:29:07;34.03;;;13.97;;
18449;SDS011;9354;50.194;7.690;2023-02-10T11:31:37;31.03;;;13.10;;
18449;SDS011;9354;50.194;7.690;2023-02-10T11:34:06;36.40;;;14.43;;
18449;SDS011;9354;50.194;7.690;2023-02-10T11:36:44;37.27;;;14.50;;
18449;SDS011;9354;50.194;7.690;2023-02-10T11:39:15;37.03;;;13.37;;
18449;SDS011;9354;50.194;7.690;2023-02-10T11:41:47;32.27;;;12.80;;
18449;SDS011;9354;50.194;7.690;2023-02-10T11:44:22;28.93;;;12.13;;
18449;SDS011;9354;50.194;7.690;2023-02-10T11:46:55;33.40;;;12.10;;
18449;SDS011;9354;50.194;7.690;2023-02-10T11:49:24;30.80;;;11.97;;
18449;SDS011;9354;50.194;7.690;2023-02-10T11:51:56;27.80;;;11.37;;
18449;SDS011;9354;50.194;7.690;2023-02-10T11:54:24;27.93;;;10.90;;
18449;SDS011;9354;50.194;7.690;2023-02-10T11:56:55;28.40;;;11.50;;
18449;SDS011;9354;50.194;7.690;2023-02-10T12:00:12;29.83;;;11.50;;
18449;SDS011;9354;50.194;7.690;2023-02-10T12:02:54;29.40;;;10.97;;
18449;SDS011;9354;50.194;7.690;2023-02-10T12:05:57;31.27;;;11.50;;
18449;SDS011;9354;50.194;7.690;2023-02-10T12:08:33;26.50;;;11.40;;
18449;SDS011;9354;50.194;7.690;2023-02-10T12:11:27;30.37;;;11.07;;
18449;SDS011;9354;50.194;7.690;2023-02-10T12:14:01;29.40;;;11.87;;
18449;SDS011;9354;50.194;7.690;2023-02-10T12:16:37;33.43;;;11.33;;
18449;SDS011;9354;50.194;7.690;2023-02-10T12:19:17;31.73;;;12.00;;
18449;SDS011;9354;50.194;7.690;2023-02-10T12:21:58;30.63;;;11.30;;
18449;SDS011;9354;50.194;7.690;2023-02-10T12:27:47;33.40;;;11.93;;
18449;SDS011;9354;50.194;7.690;2023-02-10T12:30:27;35.10;;;11.97;;
18449;SDS011;9354;50.194;7.690;2023-02-10T12:33:02;30.37;;;10.67;;
18449;SDS011;9354;50.194;7.690;2023-02-10T12:35:51;36.50;;;12.67;;
18449;SDS011;9354;50.194;7.690;2023-02-10T12:38:34;31.17;;;12.87;;
18449;SDS011;9354;50.194;7.690;2023-02-10T12:41:15;28.83;;;11.33;;
18449;SDS011;9354;50.194;7.690;2023-02-10T12:44:01;37.23;;;12.17;;
18449;SDS011;9354;50.194;7.690;2023-02-10T12:46:40;33.57;;;11.77;;
18449;SDS011;9354;50.194;7.690;2023-02-10T12:49:18;32.77;;;11.33;;
18449;SDS011;9354;50.194;7.690;2023-02-10T12:51:58;33.10;;;11.40;;
18449;SDS011;9354;50.194;7.690;2023-02-10T12:54:30;33.07;;;11.57;;
18449;SDS011;9354;50.194;7.690;2023-02-10T12:57:07;29.50;;;10.97;;
18449;SDS011;9354;50.194;7.690;2023-02-10T12:59:41;31.27;;;12.23;;
18449;SDS011;9354;50.194;7.690;2023-02-10T13:02:14;34.63;;;12.20;;
18449;SDS011;9354;50.194;7.690;2023-02-10T13:04:48;29.23;;;11.63;;
18449;SDS011;9354;50.194;7.690;2023-02-10T13:07:25;37.10;;;12.07;;
18449;SDS011;9354;50.194;7.690;2023-02-10T13:09:59;32.97;;;11.23;;
18449;SDS011;9354;50.194;7.690;2023-02-10T13:12:34;32.10;;;10.80;;
18449;SDS011;9354;50.194;7.690;2023-02-10T13:15:06;32.20;;;10.70;;
18449;SDS011;9354;50.194;7.690;2023-02-10T13:17:45;31.20;;;12.00;;
18449;SDS011;9354;50.194;7.690;2023-02-10T13:20:26;26.77;;;10.93;;
18449;SDS011;9354;50.194;7.690;2023-02-10T13:23:04;28.17;;;10.23;;
18449;SDS011;9354;50.194;7.690;2023-02-10T13:25:42;28.23;;;10.10;;
18449;SDS011;9354;50.194;7.690;2023-02-10T13:28:22;25.57;;;9.87;;
18449;SDS011;9354;50.194;7.690;2023-02-10T13:31:00;34.07;;;10.17;;
18449;SDS011;9354;50.194;7.690;2023-02-10T13:33:45;24.17;;;8.80;;
18449;SDS011;9354;50.194;7.690;2023-02-10T13:36:23;28.83;;;9.40;;
18449;SDS011;9354;50.194;7.690;2023-02-10T13:38:57;30.87;;;9.70;;
18449;SDS011;9354;50.194;7.690;2023-02-10T13:41:31;28.10;;;10.80;;
18449;SDS011;9354;50.194;7.690;2023-02-10T13:44:22;25.33;;;9.27;;
18449;SDS011;9354;50.194;7.690;2023-02-10T13:46:53;24.97;;;10.27;;
18449;SDS011;9354;50.194;7.690;2023-02-10T13:49:25;25.47;;;10.50;;
18449;SDS011;9354;50.194;7.690;2023-02-10T13:52:01;27.87;;;10.80;;
18449;SDS011;9354;50.194;7.690;2023-02-10T13:54:34;22.27;;;8.60;;
18449;SDS011;9354;50.194;7.690;2023-02-10T13:57:02;21.20;;;8.17;;
18449;SDS011;9354;50.194;7.690;2023-02-10T13:59:39;23.97;;;8.40;;
18449;SDS011;9354;50.194;7.690;2023-02-10T14:02:17;26.83;;;9.43;;
18449;SDS011;9354;50.194;7.690;2023-02-10T14:04:51;18.43;;;8.00;;
18449;SDS011;9354;50.194;7.690;2023-02-10T14:07:32;20.40;;;8.60;;
18449;SDS011;9354;50.194;7.690;2023-02-10T14:10:06;21.00;;;8.53;;
18449;SDS011;9354;50.194;7.690;2023-02-10T14:12:53;20.53;;;8.07;;
18449;SDS011;9354;50.194;7.690;2023-02-10T14:15:22;24.07;;;8.07;;
18449;SDS011;9354;50.194;7.690;2023-02-10T14:17:52;21.60;;;8.37;;
18449;SDS011;9354;50.194;7.690;2023-02-10T14:20:25;25.73;;;10.20;;
18449;SDS011;9354;50.194;7.690;2023-02-10T14:22:57;21.97;;;8.83;;
18449;SDS011;9354;50.194;7.690;2023-02-10T14:25:28;25.13;;;10.13;;
18449;SDS011;9354;50.194;7.690;2023-02-10T14:27:59;24.73;;;9.47;;
18449;SDS011;9354;50.194;7.690;2023-02-10T14:30:32;22.13;;;9.23;;
18449;SDS011;9354;50.194;7.690;2023-02-10T14:33:06;24.10;;;9.00;;
18449;SDS011;9354;50.194;7.690;2023-02-10T14:35:51;26.80;;;9.33;;
18449;SDS011;9354;50.194;7.690;2023-02-10T14:38:21;23.03;;;9.20;;
18449;SDS011;9354;50.194;7.690;2023-02-10T14:40:51;26.43;;;9.17;;
18449;SDS011;9354;50.194;7.690;2023-02-10T14:43:20;24.90;;;10.07;;
18449;SDS011;9354;50.194;7.690;2023-02-10T14:45:50;25.47;;;9.70;;
18449;SDS011;9354;50.194;7.690;2023-02-10T14:48:18;28.70;;;9.97;;
18449;SDS011;9354;50.194;7.690;2023-02-10T14:50:58;25.60;;;9.93;;
18449;SDS011;9354;50.194;7.690;2023-02-10T14:53:34;21.67;;;9.00;;
18449;SDS011;9354;50.194;7.690;2023-02-10T14:56:05;22.93;;;9.57;;
18449;SDS011;9354;50.194;7.690;2023-02-10T14:58:42;26.23;;;10.50;;
18449;SDS011;9354;50.194;7.690;2023-02-10T15:01:10;24.73;;;10.03;;
18449;SDS011;9354;50.194;7.690;2023-02-10T15:03:47;25.83;;;10.27;;
18449;SDS011;9354;50.194;7.690;2023-02-10T15:06:16;28.23;;;10.07;;
18449;SDS011;9354;50.194;7.690;2023-02-10T15:08:47;21.57;;;9.90;;